Airfield :
LOGIN :

Register | Disclaimer

   EN    FR    IT 

 










Legend :    VFR   Marginal VFR   IFR   Intensive IFR   Very Intensive IFR
Visi :
Ceiling :
>= 8 km
>= 3000ft
5 to 8 km
1000 to 3000 ft
1500m to 5 km
500 to 1000 ft
800 to 1500m
200 to 500 ft
< 800m
< 200 ft
Symbols :   Thunderstorms  Fog  Heavy snow  Heavy precipitations  Wind > 20 kt
SIGMETs :     Misc.  Thunderstorms  Icing  Turbulence  Mountain Waves  Volcanic Ashes







- Airport Elevation : 265 ft
- Download approach charts


LFMC - Le Luc

CURRENT METAR :
  • 220830Z AUTO 10018G30KT 9999 ////// 22/03 Q1003

EXPIRED METARs :
  • 220800Z AUTO 09014KT 9999 ////// 22/03 Q1003
  • 220730Z AUTO 10012KT 070V130 9999 ////// 21/04 Q1003
  • 220700Z AUTO 10013KT 9999 ////// 20/04 Q1003
  • 220630Z AUTO 10014KT 070V130 9999 ////// 20/04 Q1004
  • 220600Z AUTO 09014KT 9999 ////// 19/03 Q1004

TAF N/A
No reported NOTAMs for that airfield.
2 SIGMETs reported for the Marseille FIR (LFMM) :
 
Embedded thunderstorms
LFMM SIGMET 4 VALID 220830/221000 LFPW
LFMM MARSEILLE FIR/UIR EMBD TS OBS WI N4215 E00330 - N4215 E00230 - N4245 E00230 - N4245 E00345 - N4215 E00330 TOP FL340 MOV N 20KT NC=
Severe turbulence
LFMM SIGMET 3 VALID 220700/221100 LFPW
LFMM MARSEILLE FIR/UIR SEV TURB FCST WI N4600 E00700 - N4400 E00700 - N4315 E00945 - N4115 E00945 - N4115 E00800 - N4230 E00430 - N4600 E00700 SFC/FL100 STNR NC=



MET'MAP, your aeronautical weather chart ! - Copyright ORBIFLY December 2007 - Disclaimer

ORBIFLY MET'MAP TEAM :

Programming & Development : Alexandra Zaïnal
Concept & Development : Baudouin d'Aumeries
Co-Development & Prog : Marc-Olivier Méhu
Technical & hardware support : Manuel Goepfert

Contact : metmap@orbifly.com




SOURCES & CREDITS :

   NOAA